sensor_id;sensor_type;location;lat;lon;timestamp;pressure;altitude;pressure_sealevel;temperature;humidity
64933;BME280;51446;53.850;10.662;2023-08-06T00:00:23;100744.59;;;15.71;100.00
64933;BME280;51446;53.850;10.662;2023-08-06T00:02:49;100740.19;;;15.76;100.00
64933;BME280;51446;53.850;10.662;2023-08-06T00:05:15;100735.75;;;15.80;100.00
64933;BME280;51446;53.850;10.662;2023-08-06T00:07:50;100743.72;;;15.71;100.00
64933;BME280;51446;53.850;10.662;2023-08-06T00:10:16;100734.91;;;15.73;100.00
64933;BME280;51446;53.850;10.662;2023-08-06T00:12:42;100729.72;;;15.55;100.00
64933;BME280;51446;53.850;10.662;2023-08-06T00:15:08;100729.75;;;15.49;100.00
64933;BME280;51446;53.850;10.662;2023-08-06T00:17:34;100732.34;;;15.56;100.00
64933;BME280;51446;53.850;10.662;2023-08-06T00:20:00;100736.69;;;15.70;100.00
64933;BME280;51446;53.850;10.662;2023-08-06T00:22:34;100734.97;;;15.61;100.00
64933;BME280;51446;53.850;10.662;2023-08-06T00:25:00;100743.78;;;15.58;100.00
64933;BME280;51446;53.850;10.662;2023-08-06T00:27:25;100741.19;;;15.52;100.00
64933;BME280;51446;53.850;10.662;2023-08-06T00:29:51;100745.69;;;15.32;100.00
64933;BME280;51446;53.850;10.662;2023-08-06T00:32:17;100755.38;;;15.33;100.00
64933;BME280;51446;53.850;10.662;2023-08-06T00:34:42;100748.31;;;15.36;100.00
64933;BME280;51446;53.850;10.662;2023-08-06T00:37:07;100765.09;;;15.26;100.00
64933;BME280;51446;53.850;10.662;2023-08-06T00:39:33;100760.63;;;15.42;100.00
64933;BME280;51446;53.850;10.662;2023-08-06T00:41:58;100772.13;;;15.27;100.00
64933;BME280;51446;53.850;10.662;2023-08-06T00:44:23;100767.75;;;15.24;100.00
64933;BME280;51446;53.850;10.662;2023-08-06T00:46:49;100770.44;;;15.07;100.00
64933;BME280;51446;53.850;10.662;2023-08-06T00:49:14;100761.59;;;15.13;100.00
64933;BME280;51446;53.850;10.662;2023-08-06T00:51:40;100763.38;;;15.11;100.00
64933;BME280;51446;53.850;10.662;2023-08-06T00:54:05;100746.69;;;15.03;100.00
64933;BME280;51446;53.850;10.662;2023-08-06T00:56:33;100745.72;;;15.29;100.00
64933;BME280;51446;53.850;10.662;2023-08-06T00:59:00;100741.34;;;15.15;100.00
64933;BME280;51446;53.850;10.662;2023-08-06T01:01:26;100733.44;;;15.09;100.00
64933;BME280;51446;53.850;10.662;2023-08-06T01:03:53;100736.06;;;15.11;100.00
64933;BME280;51446;53.850;10.662;2023-08-06T01:06:22;100733.47;;;15.03;100.00
64933;BME280;51446;53.850;10.662;2023-08-06T01:08:58;100725.56;;;14.98;100.00
64933;BME280;51446;53.850;10.662;2023-08-06T01:15:15;100725.56;;;15.01;100.00
64933;BME280;51446;53.850;10.662;2023-08-06T01:17:45;100712.38;;;14.97;100.00
64933;BME280;51446;53.850;10.662;2023-08-06T01:20:10;100711.44;;;15.12;100.00
64933;BME280;51446;53.850;10.662;2023-08-06T01:22:35;100711.44;;;15.12;100.00
64933;BME280;51446;53.850;10.662;2023-08-06T01:25:01;100704.38;;;15.14;100.00
64933;BME280;51446;53.850;10.662;2023-08-06T01:27:47;100707.91;;;15.16;100.00
64933;BME280;51446;53.850;10.662;2023-08-06T01:30:17;100700.81;;;15.21;100.00
64933;BME280;51446;53.850;10.662;2023-08-06T01:32:49;100699.06;;;15.15;100.00
64933;BME280;51446;53.850;10.662;2023-08-06T01:35:17;100693.75;;;15.27;100.00
64933;BME280;51446;53.850;10.662;2023-08-06T01:37:44;100682.31;;;15.21;100.00
64933;BME280;51446;53.850;10.662;2023-08-06T01:40:10;100677.03;;;15.25;100.00
64933;BME280;51446;53.850;10.662;2023-08-06T01:42:37;100669.13;;;15.18;100.00
64933;BME280;51446;53.850;10.662;2023-08-06T01:45:02;100659.44;;;15.15;100.00
64933;BME280;51446;53.850;10.662;2023-08-06T01:47:29;100669.13;;;15.21;100.00
64933;BME280;51446;53.850;10.662;2023-08-06T01:49:54;100666.47;;;15.21;100.00
64933;BME280;51446;53.850;10.662;2023-08-06T01:52:19;100650.69;;;15.08;100.00
64933;BME280;51446;53.850;10.662;2023-08-06T01:54:44;100657.72;;;15.14;100.00
64933;BME280;51446;53.850;10.662;2023-08-06T01:57:10;100658.63;;;15.08;100.00
64933;BME280;51446;53.850;10.662;2023-08-06T01:59:35;100666.50;;;15.15;100.00
64933;BME280;51446;53.850;10.662;2023-08-06T02:02:00;100655.06;;;15.16;100.00
64933;BME280;51446;53.850;10.662;2023-08-06T02:04:26;100653.28;;;15.19;100.00
64933;BME280;51446;53.850;10.662;2023-08-06T02:06:51;100641.78;;;15.33;100.00
64933;BME280;51446;53.850;10.662;2023-08-06T02:09:16;100647.06;;;15.28;100.00
64933;BME280;51446;53.850;10.662;2023-08-06T02:11:41;100641.75;;;15.30;100.00
64933;BME280;51446;53.850;10.662;2023-08-06T02:14:07;100644.44;;;15.26;100.00
64933;BME280;51446;53.850;10.662;2023-08-06T02:16:32;100640.03;;;15.22;100.00
64933;BME280;51446;53.850;10.662;2023-08-06T02:18:57;100635.66;;;15.21;100.00
64933;BME280;51446;53.850;10.662;2023-08-06T02:21:22;100632.16;;;15.15;100.00
64933;BME280;51446;53.850;10.662;2023-08-06T02:23:48;100636.56;;;15.17;100.00
64933;BME280;51446;53.850;10.662;2023-08-06T02:26:13;100651.53;;;15.20;100.00
64933;BME280;51446;53.850;10.662;2023-08-06T02:28:38;100650.59;;;15.24;100.00
64933;BME280;51446;53.850;10.662;2023-08-06T02:31:03;100647.03;;;15.31;100.00
64933;BME280;51446;53.850;10.662;2023-08-06T02:33:29;100637.28;;;15.41;100.00
64933;BME280;51446;53.850;10.662;2023-08-06T02:36:05;100638.16;;;15.44;100.00
64933;BME280;51446;53.850;10.662;2023-08-06T02:38:31;100637.34;;;15.35;100.00
64933;BME280;51446;53.850;10.662;2023-08-06T02:40:57;100627.69;;;15.29;100.00
64933;BME280;51446;53.850;10.662;2023-08-06T02:43:22;100632.94;;;15.35;100.00
64933;BME280;51446;53.850;10.662;2023-08-06T02:45:47;100623.34;;;15.20;100.00
64933;BME280;51446;53.850;10.662;2023-08-06T02:48:13;100632.97;;;15.29;100.00
64933;BME280;51446;53.850;10.662;2023-08-06T02:50:39;100613.63;;;15.21;100.00
64933;BME280;51446;53.850;10.662;2023-08-06T02:53:06;100611.91;;;15.17;100.00
64933;BME280;51446;53.850;10.662;2023-08-06T02:55:31;100612.84;;;15.08;100.00
64933;BME280;51446;53.850;10.662;2023-08-06T02:57:57;100625.09;;;15.17;100.00
64933;BME280;51446;53.850;10.662;2023-08-06T03:00:22;100607.56;;;15.06;100.00
64933;BME280;51446;53.850;10.662;2023-08-06T03:02:47;100616.34;;;15.12;100.00
64933;BME280;51446;53.850;10.662;2023-08-06T03:05:12;100606.63;;;15.17;100.00
64933;BME280;51446;53.850;10.662;2023-08-06T03:07:38;100592.47;;;15.24;100.00
64933;BME280;51446;53.850;10.662;2023-08-06T03:10:03;100587.22;;;15.19;100.00
64933;BME280;51446;53.850;10.662;2023-08-06T03:12:29;100595.19;;;15.15;100.00
64933;BME280;51446;53.850;10.662;2023-08-06T03:14:54;100595.25;;;15.02;100.00
64933;BME280;51446;53.850;10.662;2023-08-06T03:17:19;100589.97;;;15.05;100.00
64933;BME280;51446;53.850;10.662;2023-08-06T03:19:45;100590.00;;;14.99;100.00
64933;BME280;51446;53.850;10.662;2023-08-06T03:22:10;100589.97;;;15.07;100.00
64933;BME280;51446;53.850;10.662;2023-08-06T03:24:35;100585.63;;;14.98;100.00
64933;BME280;51446;53.850;10.662;2023-08-06T03:27:00;100581.19;;;15.00;100.00
64933;BME280;51446;53.850;10.662;2023-08-06T03:29:27;100585.63;;;14.97;100.00
64933;BME280;51446;53.850;10.662;2023-08-06T03:31:52;100582.09;;;14.95;100.00
64933;BME280;51446;53.850;10.662;2023-08-06T03:34:18;100575.88;;;15.05;100.00
64933;BME280;51446;53.850;10.662;2023-08-06T03:36:43;100568.03;;;14.96;100.00
64933;BME280;51446;53.850;10.662;2023-08-06T03:39:09;100562.69;;;15.03;100.00
64933;BME280;51446;53.850;10.662;2023-08-06T03:41:34;100546.81;;;15.06;100.00
64933;BME280;51446;53.850;10.662;2023-08-06T03:44:00;100552.09;;;15.05;100.00
64933;BME280;51446;53.850;10.662;2023-08-06T03:46:27;100560.00;;;15.09;100.00
64933;BME280;51446;53.850;10.662;2023-08-06T03:48:53;100551.19;;;15.12;100.00
64933;BME280;51446;53.850;10.662;2023-08-06T03:51:18;100544.22;;;15.02;100.00
64933;BME280;51446;53.850;10.662;2023-08-06T03:53:43;100539.81;;;15.01;100.00
64933;BME280;51446;53.850;10.662;2023-08-06T03:56:09;100541.53;;;15.06;100.00
64933;BME280;51446;53.850;10.662;2023-08-06T03:58:34;100535.31;;;15.18;100.00
64933;BME280;51446;53.850;10.662;2023-08-06T04:01:00;100527.34;;;15.23;100.00
64933;BME280;51446;53.850;10.662;2023-08-06T04:03:25;100526.56;;;15.08;100.00
64933;BME280;51446;53.850;10.662;2023-08-06T04:05:51;100523.94;;;15.02;100.00
64933;BME280;51446;53.850;10.662;2023-08-06T04:08:16;100530.00;;;15.17;100.00
64933;BME280;51446;53.850;10.662;2023-08-06T04:10:42;100522.16;;;15.07;100.00
64933;BME280;51446;53.850;10.662;2023-08-06T04:13:07;100517.72;;;15.14;100.00
64933;BME280;51446;53.850;10.662;2023-08-06T04:15:33;100508.88;;;15.17;100.00
64933;BME280;51446;53.850;10.662;2023-08-06T04:17:59;100516.88;;;15.07;100.00
64933;BME280;51446;53.850;10.662;2023-08-06T04:20:24;100535.31;;;15.14;100.00
64933;BME280;51446;53.850;10.662;2023-08-06T04:22:49;100531.81;;;15.13;100.00
64933;BME280;51446;53.850;10.662;2023-08-06T04:25:14;100533.59;;;15.08;100.00
64933;BME280;51446;53.850;10.662;2023-08-06T04:27:41;100536.28;;;15.03;100.00
64933;BME280;51446;53.850;10.662;2023-08-06T04:30:07;100534.47;;;15.12;100.00
64933;BME280;51446;53.850;10.662;2023-08-06T04:32:32;100530.81;;;15.28;100.00
64933;BME280;51446;53.850;10.662;2023-08-06T04:34:57;100528.28;;;15.17;100.00
64933;BME280;51446;53.850;10.662;2023-08-06T04:37:23;100543.25;;;15.14;100.00
64933;BME280;51446;53.850;10.662;2023-08-06T04:39:48;100539.75;;;15.10;100.00
64933;BME280;51446;53.850;10.662;2023-08-06T04:42:14;100548.56;;;15.09;100.00
64933;BME280;51446;53.850;10.662;2023-08-06T04:44:39;100554.75;;;15.06;100.00
64933;BME280;51446;53.850;10.662;2023-08-06T04:47:05;100559.13;;;15.07;100.00
64933;BME280;51446;53.850;10.662;2023-08-06T04:49:30;100545.91;;;15.12;100.00
64933;BME280;51446;53.850;10.662;2023-08-06T04:51:55;100551.16;;;15.20;100.00
64933;BME280;51446;53.850;10.662;2023-08-06T04:54:20;100544.94;;;15.22;100.00
64933;BME280;51446;53.850;10.662;2023-08-06T04:56:46;100538.78;;;15.23;100.00
64933;BME280;51446;53.850;10.662;2023-08-06T04:59:11;100544.88;;;15.33;100.00
64933;BME280;51446;53.850;10.662;2023-08-06T05:01:36;100543.06;;;15.38;100.00
64933;BME280;51446;53.850;10.662;2023-08-06T05:04:02;100531.66;;;15.35;100.00
64933;BME280;51446;53.850;10.662;2023-08-06T05:06:27;100522.88;;;15.30;100.00
64933;BME280;51446;53.850;10.662;2023-08-06T05:08:52;100530.78;;;15.34;100.00
64933;BME280;51446;53.850;10.662;2023-08-06T05:11:17;100521.97;;;15.35;100.00
64933;BME280;51446;53.850;10.662;2023-08-06T05:13:43;100525.44;;;15.42;100.00
64933;BME280;51446;53.850;10.662;2023-08-06T05:16:08;100526.28;;;15.49;100.00
64933;BME280;51446;53.850;10.662;2023-08-06T05:18:33;100522.69;;;15.53;100.00
64933;BME280;51446;53.850;10.662;2023-08-06T05:20:59;100518.34;;;15.44;100.00
64933;BME280;51446;53.850;10.662;2023-08-06T05:23:25;100516.63;;;15.43;100.00
64933;BME280;51446;53.850;10.662;2023-08-06T05:25:50;100526.19;;;15.56;100.00
64933;BME280;51446;53.850;10.662;2023-08-06T05:28:15;100527.03;;;15.58;100.00
64933;BME280;51446;53.850;10.662;2023-08-06T05:30:41;100526.16;;;15.61;100.00
64933;BME280;51446;53.850;10.662;2023-08-06T05:33:07;100531.44;;;15.59;100.00
64933;BME280;51446;53.850;10.662;2023-08-06T05:35:32;100534.84;;;15.72;100.00
64933;BME280;51446;53.850;10.662;2023-08-06T05:37:57;100529.53;;;15.80;100.00
64933;BME280;51446;53.850;10.662;2023-08-06T05:40:22;100525.13;;;15.77;100.00
64933;BME280;51446;53.850;10.662;2023-08-06T05:42:49;100526.94;;;15.72;100.00
64933;BME280;51446;53.850;10.662;2023-08-06T05:45:14;100526.94;;;15.71;100.00
64933;BME280;51446;53.850;10.662;2023-08-06T05:47:40;100526.06;;;15.73;100.00
64933;BME280;51446;53.850;10.662;2023-08-06T05:50:06;100525.16;;;15.76;100.00
64933;BME280;51446;53.850;10.662;2023-08-06T05:52:31;100528.66;;;15.80;100.00
64933;BME280;51446;53.850;10.662;2023-08-06T05:54:56;100524.22;;;15.83;100.00
64933;BME280;51446;53.850;10.662;2023-08-06T05:57:22;100521.59;;;15.82;100.00
64933;BME280;51446;53.850;10.662;2023-08-06T05:59:47;100525.94;;;15.86;100.00
64933;BME280;51446;53.850;10.662;2023-08-06T06:02:12;100520.72;;;15.80;100.00
64933;BME280;51446;53.850;10.662;2023-08-06T06:04:37;100530.44;;;15.79;100.00
64933;BME280;51446;53.850;10.662;2023-08-06T06:07:03;100524.25;;;15.82;100.00
64933;BME280;51446;53.850;10.662;2023-08-06T06:09:28;100516.34;;;15.74;100.00
64933;BME280;51446;53.850;10.662;2023-08-06T06:11:53;100520.66;;;15.89;100.00
64933;BME280;51446;53.850;10.662;2023-08-06T06:14:19;100517.81;;;16.04;100.00
64933;BME280;51446;53.850;10.662;2023-08-06T06:16:45;100513.28;;;16.17;100.00
64933;BME280;51446;53.850;10.662;2023-08-06T06:19:11;100521.91;;;16.33;100.00
64933;BME280;51446;53.850;10.662;2023-08-06T06:21:36;100522.00;;;16.25;100.00
64933;BME280;51446;53.850;10.662;2023-08-06T06:24:03;100517.78;;;16.10;100.00
64933;BME280;51446;53.850;10.662;2023-08-06T06:26:30;100517.69;;;16.17;100.00
64933;BME280;51446;53.850;10.662;2023-08-06T06:28:55;100527.31;;;16.24;100.00
64933;BME280;51446;53.850;10.662;2023-08-06T06:31:20;100521.09;;;16.28;100.00
64933;BME280;51446;53.850;10.662;2023-08-06T06:33:45;100521.03;;;16.33;100.00
64933;BME280;51446;53.850;10.662;2023-08-06T06:36:11;100512.09;;;16.41;100.00
64933;BME280;51446;53.850;10.662;2023-08-06T06:38:36;100512.84;;;16.53;100.00
64933;BME280;51446;53.850;10.662;2023-08-06T06:41:02;100506.66;;;16.54;100.00
64933;BME280;51446;53.850;10.662;2023-08-06T06:43:28;100495.56;;;16.25;100.00
64933;BME280;51446;53.850;10.662;2023-08-06T06:45:56;100504.13;;;16.44;100.00
64933;BME280;51446;53.850;10.662;2023-08-06T06:48:22;100503.63;;;16.81;100.00
64933;BME280;51446;53.850;10.662;2023-08-06T06:50:48;100501.66;;;16.99;100.00
64933;BME280;51446;53.850;10.662;2023-08-06T06:53:13;100494.53;;;17.01;100.00
64933;BME280;51446;53.850;10.662;2023-08-06T06:55:39;100493.81;;;16.91;100.00
64933;BME280;51446;53.850;10.662;2023-08-06T06:58:04;100501.47;;;17.11;100.00
64933;BME280;51446;53.850;10.662;2023-08-06T07:00:29;100502.59;;;17.49;100.00
64933;BME280;51446;53.850;10.662;2023-08-06T07:02:54;100503.06;;;17.75;100.00
64933;BME280;51446;53.850;10.662;2023-08-06T07:05:20;100503.19;;;17.65;100.00
64933;BME280;51446;53.850;10.662;2023-08-06T07:07:45;100500.94;;;17.44;100.00
64933;BME280;51446;53.850;10.662;2023-08-06T07:10:10;100503.97;;;17.72;100.00
64933;BME280;51446;53.850;10.662;2023-08-06T07:12:36;100505.66;;;17.78;100.00
64933;BME280;51446;53.850;10.662;2023-08-06T07:15:05;100498.09;;;17.55;100.00
64933;BME280;51446;53.850;10.662;2023-08-06T07:17:31;100498.19;;;17.48;100.00
64933;BME280;51446;53.850;10.662;2023-08-06T07:19:56;100493.97;;;17.88;100.00
64933;BME280;51446;53.850;10.662;2023-08-06T07:22:22;100494.97;;;17.81;100.00
64933;BME280;51446;53.850;10.662;2023-08-06T07:24:47;100500.22;;;17.84;100.00
64933;BME280;51446;53.850;10.662;2023-08-06T07:27:12;100498.75;;;17.67;100.00
64933;BME280;51446;53.850;10.662;2023-08-06T07:29:37;100490.47;;;17.84;100.00
64933;BME280;51446;53.850;10.662;2023-08-06T07:32:03;100491.63;;;18.19;100.00
64933;BME280;51446;53.850;10.662;2023-08-06T07:34:28;100492.00;;;18.43;100.00
64933;BME280;51446;53.850;10.662;2023-08-06T07:36:53;100494.69;;;18.42;100.00
64933;BME280;51446;53.850;10.662;2023-08-06T07:39:18;100498.50;;;18.70;100.00
64933;BME280;51446;53.850;10.662;2023-08-06T07:41:44;100499.97;;;18.84;100.00
64933;BME280;51446;53.850;10.662;2023-08-06T07:44:11;100488.44;;;18.44;100.00
64933;BME280;51446;53.850;10.662;2023-08-06T07:46:36;100499.84;;;18.06;100.00
64933;BME280;51446;53.850;10.662;2023-08-06T07:49:01;100486.84;;;18.37;100.00
64933;BME280;51446;53.850;10.662;2023-08-06T07:51:27;100491.84;;;18.07;100.00
64933;BME280;51446;53.850;10.662;2023-08-06T07:53:53;100502.88;;;18.32;100.00
64933;BME280;51446;53.850;10.662;2023-08-06T07:56:18;100504.63;;;18.72;100.00
64933;BME280;51446;53.850;10.662;2023-08-06T07:58:43;100497.25;;;18.85;100.00
64933;BME280;51446;53.850;10.662;2023-08-06T08:01:08;100493.88;;;19.18;100.00
64933;BME280;51446;53.850;10.662;2023-08-06T08:03:34;100488.47;;;19.22;100.00
64933;BME280;51446;53.850;10.662;2023-08-06T08:05:59;100491.00;;;19.27;100.00
64933;BME280;51446;53.850;10.662;2023-08-06T08:08:25;100489.84;;;19.39;100.00
64933;BME280;51446;53.850;10.662;2023-08-06T08:10:50;100480.06;;;19.39;100.00
64933;BME280;51446;53.850;10.662;2023-08-06T08:13:15;100482.41;;;19.16;100.00
64933;BME280;51446;53.850;10.662;2023-08-06T08:15:41;100478.22;;;19.05;100.00
64933;BME280;51446;53.850;10.662;2023-08-06T08:18:06;100484.00;;;19.24;100.00
64933;BME280;51446;53.850;10.662;2023-08-06T08:20:31;100487.25;;;18.98;100.00
64933;BME280;51446;53.850;10.662;2023-08-06T08:22:58;100477.72;;;18.89;100.00
64933;BME280;51446;53.850;10.662;2023-08-06T08:25:24;100467.31;;;19.52;100.00
64933;BME280;51446;53.850;10.662;2023-08-06T08:27:49;100470.44;;;19.68;100.00
64933;BME280;51446;53.850;10.662;2023-08-06T08:30:15;100470.66;;;19.95;100.00
64933;BME280;51446;53.850;10.662;2023-08-06T08:32:40;100477.31;;;19.77;100.00
64933;BME280;51446;53.850;10.662;2023-08-06T08:35:05;100473.84;;;19.75;100.00
64933;BME280;51446;53.850;10.662;2023-08-06T08:37:30;100471.28;;;20.03;100.00
64933;BME280;51446;53.850;10.662;2023-08-06T08:39:56;100468.53;;;20.38;100.00
64933;BME280;51446;53.850;10.662;2023-08-06T08:42:21;100467.63;;;20.07;100.00
64933;BME280;51446;53.850;10.662;2023-08-06T08:44:47;100472.75;;;20.14;100.00
64933;BME280;51446;53.850;10.662;2023-08-06T08:47:13;100480.69;;;20.47;100.00
64933;BME280;51446;53.850;10.662;2023-08-06T08:49:41;100463.59;;;20.84;100.00
64933;BME280;51446;53.850;10.662;2023-08-06T08:52:09;100472.38;;;19.96;100.00
64933;BME280;51446;53.850;10.662;2023-08-06T08:54:38;100465.72;;;20.42;100.00
64933;BME280;51446;53.850;10.662;2023-08-06T08:57:04;100473.41;;;20.83;100.00
64933;BME280;51446;53.850;10.662;2023-08-06T08:59:29;100466.13;;;20.58;100.00
64933;BME280;51446;53.850;10.662;2023-08-06T09:01:55;100478.81;;;20.50;100.00
64933;BME280;51446;53.850;10.662;2023-08-06T09:04:21;100478.97;;;20.75;100.00
64933;BME280;51446;53.850;10.662;2023-08-06T09:06:50;100478.25;;;20.70;100.00
64933;BME280;51446;53.850;10.662;2023-08-06T09:09:22;100466.53;;;21.83;100.00
64933;BME280;51446;53.850;10.662;2023-08-06T09:11:50;100463.56;;;21.91;100.00
64933;BME280;51446;53.850;10.662;2023-08-06T09:14:17;100457.91;;;20.96;100.00
64933;BME280;51446;53.850;10.662;2023-08-06T09:16:43;100458.38;;;21.09;100.00
64933;BME280;51446;53.850;10.662;2023-08-06T09:19:09;100462.56;;;21.16;100.00
64933;BME280;51446;53.850;10.662;2023-08-06T09:21:42;100459.22;;;21.88;100.00
64933;BME280;51446;53.850;10.662;2023-08-06T09:24:12;100461.34;;;21.53;100.00
64933;BME280;51446;53.850;10.662;2023-08-06T09:26:38;100463.06;;;21.79;100.00
64933;BME280;51446;53.850;10.662;2023-08-06T09:29:08;100466.63;;;21.55;100.00
64933;BME280;51446;53.850;10.662;2023-08-06T09:31:49;100461.34;;;21.53;100.00
64933;BME280;51446;53.850;10.662;2023-08-06T09:34:19;100448.59;;;21.35;100.00
64933;BME280;51446;53.850;10.662;2023-08-06T09:36:51;100445.75;;;20.86;100.00
64933;BME280;51446;53.850;10.662;2023-08-06T09:39:35;100444.66;;;21.20;100.00
64933;BME280;51446;53.850;10.662;2023-08-06T09:42:01;100452.97;;;21.10;100.00
64933;BME280;51446;53.850;10.662;2023-08-06T09:44:28;100449.19;;;21.18;100.00
64933;BME280;51446;53.850;10.662;2023-08-06T09:46:59;100454.06;;;20.76;100.00
64933;BME280;51446;53.850;10.662;2023-08-06T09:51:57;100442.81;;;20.07;100.00
64933;BME280;51446;53.850;10.662;2023-08-06T09:54:25;100442.47;;;20.48;100.00
64933;BME280;51446;53.850;10.662;2023-08-06T09:56:52;100452.53;;;20.38;100.00
64933;BME280;51446;53.850;10.662;2023-08-06T09:59:19;100449.94;;;20.36;100.00
64933;BME280;51446;53.850;10.662;2023-08-06T10:01:46;100445.47;;;20.37;100.00
64933;BME280;51446;53.850;10.662;2023-08-06T10:04:13;100443.56;;;19.79;100.00
64933;BME280;51446;53.850;10.662;2023-08-06T10:06:42;100445.66;;;19.68;100.00
64933;BME280;51446;53.850;10.662;2023-08-06T10:09:07;100429.59;;;20.04;100.00
64933;BME280;51446;53.850;10.662;2023-08-06T10:11:35;100434.63;;;20.13;100.00
64933;BME280;51446;53.850;10.662;2023-08-06T10:14:13;100433.34;;;20.26;100.00
64933;BME280;51446;53.850;10.662;2023-08-06T10:16:40;100442.19;;;20.57;100.00
64933;BME280;51446;53.850;10.662;2023-08-06T10:19:07;100434.03;;;20.33;100.00
64933;BME280;51446;53.850;10.662;2023-08-06T10:21:34;100429.97;;;20.21;100.00
64933;BME280;51446;53.850;10.662;2023-08-06T10:23:59;100433.69;;;20.16;100.00
64933;BME280;51446;53.850;10.662;2023-08-06T10:26:29;100424.41;;;19.65;100.00
64933;BME280;51446;53.850;10.662;2023-08-06T10:28:55;100422.38;;;19.41;100.00
64933;BME280;51446;53.850;10.662;2023-08-06T10:31:53;100411.28;;;19.58;100.00
64933;BME280;51446;53.850;10.662;2023-08-06T10:34:19;100422.28;;;19.79;100.00
64933;BME280;51446;53.850;10.662;2023-08-06T10:36:44;100417.91;;;20.09;100.00
64933;BME280;51446;53.850;10.662;2023-08-06T10:39:13;100420.72;;;20.03;100.00
64933;BME280;51446;53.850;10.662;2023-08-06T10:41:42;100420.63;;;20.36;100.00
64933;BME280;51446;53.850;10.662;2023-08-06T10:44:09;100413.00;;;19.94;100.00
64933;BME280;51446;53.850;10.662;2023-08-06T10:46:35;100411.72;;;20.07;100.00
64933;BME280;51446;53.850;10.662;2023-08-06T10:49:01;100404.69;;;20.35;100.00
64933;BME280;51446;53.850;10.662;2023-08-06T10:51:26;100405.28;;;20.44;100.00
64933;BME280;51446;53.850;10.662;2023-08-06T10:53:52;100404.06;;;20.85;100.00
64933;BME280;51446;53.850;10.662;2023-08-06T10:56:23;100402.41;;;20.81;100.00
64933;BME280;51446;53.850;10.662;2023-08-06T10:58:50;100404.03;;;21.11;100.00
64933;BME280;51446;53.850;10.662;2023-08-06T11:01:16;100401.72;;;21.54;100.00
64933;BME280;51446;53.850;10.662;2023-08-06T11:03:43;100402.16;;;21.91;100.00
64933;BME280;51446;53.850;10.662;2023-08-06T11:06:09;100388.09;;;21.37;100.00
64933;BME280;51446;53.850;10.662;2023-08-06T11:08:37;100396.88;;;21.39;100.00
64933;BME280;51446;53.850;10.662;2023-08-06T11:11:14;100388.66;;;21.95;100.00
64933;BME280;51446;53.850;10.662;2023-08-06T11:13:43;100384.41;;;22.13;100.00
64933;BME280;51446;53.850;10.662;2023-08-06T11:16:14;100384.94;;;22.23;100.00
64933;BME280;51446;53.850;10.662;2023-08-06T11:18:40;100387.78;;;22.42;100.00
64933;BME280;51446;53.850;10.662;2023-08-06T11:21:07;100387.53;;;22.71;100.00
64933;BME280;51446;53.850;10.662;2023-08-06T11:23:34;100390.81;;;21.86;100.00
64933;BME280;51446;53.850;10.662;2023-08-06T11:25:59;100381.59;;;21.69;100.00
64933;BME280;51446;53.850;10.662;2023-08-06T11:28:25;100387.59;;;22.47;100.00
64933;BME280;51446;53.850;10.662;2023-08-06T11:30:51;100380.44;;;22.69;100.00
64933;BME280;51446;53.850;10.662;2023-08-06T11:33:23;100392.47;;;22.12;100.00
64933;BME280;51446;53.850;10.662;2023-08-06T11:35:53;100386.38;;;21.34;100.00
64933;BME280;51446;53.850;10.662;2023-08-06T11:38:19;100377.66;;;21.29;100.00
64933;BME280;51446;53.850;10.662;2023-08-06T11:40:45;100383.47;;;20.61;100.00
64933;BME280;51446;53.850;10.662;2023-08-06T11:43:12;100383.72;;;20.52;100.00
64933;BME280;51446;53.850;10.662;2023-08-06T11:45:37;100383.34;;;20.36;100.00
64933;BME280;51446;53.850;10.662;2023-08-06T11:48:03;100371.75;;;20.66;100.00
64933;BME280;51446;53.850;10.662;2023-08-06T11:50:29;100382.56;;;20.89;100.00
64933;BME280;51446;53.850;10.662;2023-08-06T11:52:59;100376.84;;;20.75;100.00
64933;BME280;51446;53.850;10.662;2023-08-06T11:55:26;100374.44;;;20.37;100.00
64933;BME280;51446;53.850;10.662;2023-08-06T11:57:53;100367.53;;;20.58;100.00
64933;BME280;51446;53.850;10.662;2023-08-06T12:00:18;100373.22;;;20.48;100.00
64933;BME280;51446;53.850;10.662;2023-08-06T12:02:46;100371.44;;;20.48;100.00
64933;BME280;51446;53.850;10.662;2023-08-06T12:05:13;100356.94;;;20.85;100.00
64933;BME280;51446;53.850;10.662;2023-08-06T12:07:41;100363.00;;;20.62;100.00
64933;BME280;51446;53.850;10.662;2023-08-06T12:10:07;100365.16;;;20.79;100.00
64933;BME280;51446;53.850;10.662;2023-08-06T12:12:33;100365.38;;;20.71;100.00
64933;BME280;51446;53.850;10.662;2023-08-06T12:14:59;100359.72;;;21.09;100.00
64933;BME280;51446;53.850;10.662;2023-08-06T12:17:24;100360.41;;;21.14;100.00
64933;BME280;51446;53.850;10.662;2023-08-06T12:19:50;100354.84;;;21.20;100.00
64933;BME280;51446;53.850;10.662;2023-08-06T12:22:16;100365.84;;;21.36;100.00
64933;BME280;51446;53.850;10.662;2023-08-06T12:24:42;100357.47;;;20.96;100.00
64933;BME280;51446;53.850;10.662;2023-08-06T12:27:08;100363.34;;;20.51;100.00
64933;BME280;51446;53.850;10.662;2023-08-06T12:29:33;100349.53;;;20.95;100.00
64933;BME280;51446;53.850;10.662;2023-08-06T12:31:58;100331.78;;;20.94;100.00